Time;durP1;ratioP1;P1;durP2;ratioP2;P2;SDS_P1;SDS_P2;PMS_P1;PMS_P2;Temp;Humidity;BMP_temperature;BMP_pressure;BME280_temperature;BME280_humidity;BME280_pressure;Samples;Min_cycle;Max_cycle;Signal;HPM_P1;HPM_P2
2023/11/29 00:00:13;;;;;;;12.85;8.35;;;;;;;21.96;27.65;100498.63;4246714;27;19919;-68
2023/11/29 00:02:15;;;;;;;12.63;8.48;;;;;;;21.98;27.55;100492.13;4246793;27;20073;-68
2023/11/29 00:04:17;;;;;;;11.45;8.63;;;;;;;22.02;27.72;100482.00;4246840;28;20043;-68
2023/11/29 00:06:19;;;;;;;11.20;7.75;;;;;;;21.99;27.61;100488.47;4246616;28;20055;-67
2023/11/29 00:08:20;;;;;;;10.88;8.15;;;;;;;22.04;27.66;100490.72;4246974;28;20112;-67
2023/11/29 00:10:22;;;;;;;11.18;8.43;;;;;;;22.05;27.69;100494.28;4228738;28;20119;-68
2023/11/29 00:12:24;;;;;;;;;;;;;;;22.01;27.48;100489.19;4247531;28;20405;-68
2023/11/29 00:14:26;;;;;;;11.63;7.63;;;;;;;21.98;27.51;100489.47;4246748;28;19966;-68
2023/11/29 00:16:27;;;;;;;10.27;7.50;;;;;;;21.99;28.18;100490.28;4247058;28;20281;-68
2023/11/29 00:18:29;;;;;;;13.45;8.13;;;;;;;21.97;27.89;100486.91;4228729;28;20437;-68
2023/11/29 00:20:35;;;;;;;10.77;8.20;;;;;;;21.98;27.70;100491.28;4246626;28;20530;-67
2023/11/29 00:22:37;;;;;;;10.85;7.80;;;;;;;22.00;27.61;100481.28;4228367;28;20078;-68
2023/11/29 00:24:46;;;;;;;11.77;7.68;;;;;;;22.00;27.55;100479.44;4246590;28;20043;-67
2023/11/29 00:26:48;;;;;;;11.98;7.53;;;;;;;21.95;27.76;100462.94;4246669;28;20047;-68
2023/11/29 00:28:53;;;;;;;9.30;6.78;;;;;;;22.02;27.60;100471.28;4246819;28;20055;-68
2023/11/29 00:30:55;;;;;;;9.23;6.55;;;;;;;22.01;27.69;100467.75;4246570;28;20088;-68
2023/11/29 00:32:56;;;;;;;9.68;7.07;;;;;;;21.98;27.95;100470.72;4246814;28;20047;-67
2023/11/29 00:34:58;;;;;;;;;;;;;;;22.01;27.91;100465.06;4247044;28;20047;-67
2023/11/29 00:37:01;;;;;;;11.93;7.13;;;;;;;21.94;28.01;100455.03;4246377;28;20337;-67
2023/11/29 00:39:03;;;;;;;9.68;6.38;;;;;;;21.94;27.85;100463.91;4246685;28;20277;-67
2023/11/29 00:41:05;;;;;;;9.77;6.40;;;;;;;21.96;27.71;100455.78;4246830;28;20092;-67
2023/11/29 00:43:06;;;;;;;9.07;6.22;;;;;;;21.99;28.08;100463.53;4243972;28;20504;-66
2023/11/29 00:45:15;;;;;;;9.65;6.03;;;;;;;22.00;28.18;100459.88;4229500;28;20060;-67
2023/11/29 00:47:17;;;;;;;8.98;5.78;;;;;;;22.01;27.80;100459.72;4229368;28;20514;-68
2023/11/29 00:49:18;;;;;;;9.02;5.63;;;;;;;22.04;27.94;100466.63;4229616;28;20421;-68
2023/11/29 00:51:20;;;;;;;7.55;5.32;;;;;;;21.99;27.97;100461.69;4229405;28;20332;-68
2023/11/29 00:53:22;;;;;;;8.60;5.85;;;;;;;22.04;27.72;100455.91;4247427;27;20187;-67
2023/11/29 00:55:23;;;;;;;;;;;;;;;22.01;27.88;100462.41;4238666;27;20054;-67
2023/11/29 00:57:35;;;;;;;7.60;5.40;;;;;;;21.99;27.63;100456.34;4229460;28;19924;-68
2023/11/29 00:59:37;;;;;;;7.35;5.40;;;;;;;21.97;28.18;100455.63;4236414;28;20083;-68
2023/11/29 01:01:38;;;;;;;;;;;;;;;21.99;27.96;100455.47;4247356;27;20126;-68
2023/11/29 01:03:40;;;;;;;7.68;5.07;;;;;;;21.94;27.95;100447.00;4249750;27;20367;-68
2023/11/29 01:05:42;;;;;;;7.55;5.38;;;;;;;21.99;27.76;100448.31;4249204;27;20431;-67
2023/11/29 01:07:44;;;;;;;8.32;5.13;;;;;;;22.02;28.00;100461.41;4231444;28;20048;-68
2023/11/29 01:09:45;;;;;;;7.50;4.90;;;;;;;21.98;28.00;100435.03;4249761;27;20051;-68
2023/11/29 01:11:47;;;;;;;7.13;4.68;;;;;;;22.05;28.05;100446.06;4249544;27;20122;-67
2023/11/29 01:13:49;;;;;;;;;;;;;;;22.03;27.94;100451.56;4249928;27;20039;-68
2023/11/29 01:15:51;;;;;;;7.78;4.80;;;;;;;22.02;27.87;100453.38;4249727;27;19919;-67
2023/11/29 01:17:52;;;;;;;7.75;4.50;;;;;;;22.02;28.33;100448.03;4249477;27;20060;-67
2023/11/29 01:19:54;;;;;;;;;;;;;;;22.01;28.15;100449.00;4249640;27;20043;-66
2023/11/29 01:21:56;;;;;;;6.43;4.10;;;;;;;21.98;28.12;100438.59;4249491;27;20430;-68
2023/11/29 01:23:57;;;;;;;6.20;4.05;;;;;;;22.01;28.00;100448.16;4249593;27;20137;-68
2023/11/29 01:25:59;;;;;;;7.07;4.38;;;;;;;22.01;28.03;100440.97;4249436;27;20051;-67
2023/11/29 01:28:03;;;;;;;7.40;4.53;;;;;;;22.01;28.40;100438.28;4249507;27;20047;-68
2023/11/29 01:30:05;;;;;;;7.28;4.22;;;;;;;22.04;28.10;100433.66;4249370;27;20043;-68
2023/11/29 01:32:07;;;;;;;5.80;3.65;;;;;;;22.07;27.92;100428.03;4249307;27;20043;-67
2023/11/29 01:34:09;;;;;;;;;;;;;;;22.07;28.18;100434.22;4249479;27;20107;-67
2023/11/29 01:36:11;;;;;;;7.38;4.13;;;;;;;22.04;28.27;100444.38;4231159;28;19926;-68
2023/11/29 01:38:13;;;;;;;5.57;3.47;;;;;;;22.05;28.05;100435.34;4249081;27;20070;-68
2023/11/29 01:40:15;;;;;;;7.18;4.05;;;;;;;22.02;28.11;100434.63;4249110;27;20043;-68
2023/11/29 01:42:17;;;;;;;5.82;3.63;;;;;;;22.04;28.13;100439.00;4249132;27;20102;-67
2023/11/29 01:44:18;;;;;;;6.28;3.70;;;;;;;22.05;28.32;100446.91;4239999;27;20036;-67
2023/11/29 01:46:21;;;;;;;6.78;3.88;;;;;;;22.07;28.51;100438.75;4232105;28;20056;-68
2023/11/29 01:48:25;;;;;;;6.85;3.33;;;;;;;22.07;28.34;100434.22;4232026;28;20047;-68
2023/11/29 01:50:32;;;;;;;5.40;3.40;;;;;;;22.08;28.10;100433.25;4241624;27;20074;-67
2023/11/29 01:52:35;;;;;;;6.43;3.60;;;;;;;22.12;28.31;100429.31;4230486;28;20043;-68
2023/11/29 01:54:37;;;;;;;6.13;3.40;;;;;;;22.02;28.09;100420.41;4242744;27;20267;-67
2023/11/29 01:56:40;;;;;;;5.85;3.65;;;;;;;22.02;28.18;100421.25;4231967;28;20097;-67
2023/11/29 01:58:41;;;;;;;5.82;3.30;;;;;;;22.11;28.18;100429.44;4232041;28;20420;-67
2023/11/29 02:00:44;;;;;;;5.35;3.33;;;;;;;22.02;28.11;100413.22;4231693;28;20050;-67
2023/11/29 02:02:46;;;;;;;5.85;3.10;;;;;;;22.05;28.40;100424.66;4231300;28;20131;-67
2023/11/29 02:04:50;;;;;;;4.80;3.00;;;;;;;22.04;28.27;100418.44;4231861;28;20054;-67
2023/11/29 02:06:51;;;;;;;5.80;3.10;;;;;;;22.03;28.27;100419.44;4231919;28;20063;-67
2023/11/29 02:08:53;;;;;;;6.68;3.22;;;;;;;22.10;28.33;100425.06;4232001;28;20075;-68
2023/11/29 02:10:55;;;;;;;;;;;;;;;22.12;28.21;100425.78;4232230;28;20417;-67
2023/11/29 02:12:57;;;;;;;5.35;3.00;;;;;;;22.11;28.41;100426.78;4231772;28;19935;-67
2023/11/29 02:14:59;;;;;;;5.63;3.00;;;;;;;22.11;28.45;100424.09;4230984;28;20043;-67
2023/11/29 02:17:00;;;;;;;5.35;2.78;;;;;;;22.14;28.15;100429.16;4231491;28;20047;-67
2023/11/29 02:19:02;;;;;;;5.32;2.92;;;;;;;22.12;28.44;100429.31;4231785;28;20422;-67
2023/11/29 02:21:04;;;;;;;;;;;;;;;22.09;28.44;100429.59;4231734;28;20044;-67
2023/11/29 02:23:05;;;;;;;4.55;2.60;;;;;;;22.07;28.28;100428.88;4231735;28;20408;-67
2023/11/29 02:25:07;;;;;;;5.15;2.85;;;;;;;22.09;28.41;100428.72;4231146;28;20039;-67
2023/11/29 02:27:09;;;;;;;4.78;2.42;;;;;;;21.98;28.45;100409.13;4231456;28;20123;-66
2023/11/29 02:29:11;;;;;;;5.00;2.53;;;;;;;22.12;28.45;100432.00;4231475;28;20749;-67
2023/11/29 02:31:13;;;;;;;4.35;2.42;;;;;;;22.13;28.51;100430.16;4250940;27;20058;-67
2023/11/29 02:33:15;;;;;;;5.55;2.53;;;;;;;22.17;28.47;100428.91;4265081;27;20042;-67
2023/11/29 02:35:16;;;;;;;;;;;;;;;22.14;28.34;100427.34;4265896;27;20057;-67
2023/11/29 02:37:18;;;;;;;4.55;2.35;;;;;;;22.09;28.32;100418.03;4247070;27;19919;-67
2023/11/29 02:39:20;;;;;;;5.15;2.22;;;;;;;22.10;28.31;100414.38;4265547;27;20509;-66
2023/11/29 02:41:21;;;;;;;4.63;2.42;;;;;;;22.14;28.45;100421.13;4265420;27;20045;-67
2023/11/29 02:43:23;;;;;;;6.00;2.38;;;;;;;22.12;28.42;100415.09;4255591;27;20074;-68
2023/11/29 02:45:25;;;;;;;5.03;2.28;;;;;;;22.05;28.73;100400.53;4231070;28;20079;-67
2023/11/29 02:47:26;;;;;;;;;;;;;;;22.09;28.41;100402.81;4231059;28;20051;-67
2023/11/29 02:49:28;;;;;;;4.18;1.90;;;;;;;22.09;28.51;100396.59;4231092;28;19920;-67
2023/11/29 02:51:30;;;;;;;4.70;2.05;;;;;;;22.10;28.35;100395.63;4231146;28;20474;-67
2023/11/29 02:53:32;;;;;;;4.10;2.22;;;;;;;22.16;28.13;100397.75;4237328;27;20038;-67
2023/11/29 02:55:34;;;;;;;4.18;1.92;;;;;;;22.13;28.55;100393.50;4236482;27;20104;-67
2023/11/29 02:57:36;;;;;;;5.00;2.00;;;;;;;22.17;28.45;100389.56;4230888;28;20528;-67
2023/11/29 02:59:37;;;;;;;4.00;1.83;;;;;;;22.14;28.62;100395.22;4230850;28;20041;-67
2023/11/29 03:01:39;;;;;;;3.88;1.90;;;;;;;22.16;28.52;100400.41;4230449;28;20043;-67
2023/11/29 03:03:41;;;;;;;;;;;;;;;22.15;28.18;100404.06;4231244;28;20055;-67
2023/11/29 03:05:42;;;;;;;4.63;2.10;;;;;;;22.10;28.40;100400.97;4230525;28;19930;-67
2023/11/29 03:07:44;;;;;;;4.90;1.90;;;;;;;22.11;28.52;100394.63;4230809;28;20062;-67
2023/11/29 03:09:46;;;;;;;4.63;1.80;;;;;;;22.08;28.34;100387.72;4230711;28;20123;-67
2023/11/29 03:11:47;;;;;;;;;;;;;;;22.14;28.64;100383.63;4231077;28;20053;-67
2023/11/29 03:13:49;;;;;;;4.03;1.70;;;;;;;22.14;28.63;100378.28;4230749;28;20346;-67
2023/11/29 03:15:51;;;;;;;4.47;2.10;;;;;;;22.20;28.38;100382.25;4230364;28;20111;-67
2023/11/29 03:17:52;;;;;;;3.88;2.00;;;;;;;22.20;28.56;100384.91;4230592;28;20048;-67
2023/11/29 03:19:54;;;;;;;4.68;1.75;;;;;;;22.18;28.57;100377.03;4230636;28;20412;-67
2023/11/29 03:21:55;;;;;;;3.72;1.67;;;;;;;22.19;28.43;100384.09;4230637;28;20115;-67
2023/11/29 03:23:57;;;;;;;4.70;1.90;;;;;;;22.18;28.54;100379.72;4230766;28;20058;-67
2023/11/29 03:26:03;;;;;;;3.90;2.00;;;;;;;22.12;28.61;100378.41;4229823;28;20147;-67
2023/11/29 03:28:05;;;;;;;4.50;2.00;;;;;;;22.10;28.84;100363.47;4230481;28;20468;-67
2023/11/29 03:30:07;;;;;;;4.90;1.92;;;;;;;22.15;28.63;100378.16;4231257;27;20440;-67
2023/11/29 03:32:09;;;;;;;5.47;1.92;;;;;;;22.16;28.37;100373.63;4264391;27;20042;-67
2023/11/29 03:34:11;;;;;;;5.28;2.47;;;;;;;22.18;28.16;100371.66;4264508;27;20054;-67
2023/11/29 03:36:12;;;;;;;;;;;;;;;22.19;28.66;100373.38;4264973;27;20046;-67
2023/11/29 03:38:14;;;;;;;4.40;2.20;;;;;;;22.18;28.57;100367.16;4264412;27;19919;-66
2023/11/29 03:40:16;;;;;;;5.97;2.80;;;;;;;22.20;28.56;100360.81;4264596;27;20039;-67
2023/11/29 03:42:17;;;;;;;4.53;2.38;;;;;;;22.20;28.50;100356.31;4264562;27;20051;-67
2023/11/29 03:44:19;;;;;;;5.22;2.42;;;;;;;22.18;28.72;100348.41;4238541;27;20039;-67
2023/11/29 03:46:21;;;;;;;5.15;2.70;;;;;;;22.15;28.67;100350.50;4230042;28;20050;-67
2023/11/29 03:48:23;;;;;;;6.95;3.17;;;;;;;22.14;28.45;100352.34;4230298;28;20681;-67
2023/11/29 03:50:24;;;;;;;5.60;2.95;;;;;;;22.12;28.50;100343.59;4230285;28;20077;-67
2023/11/29 03:52:26;;;;;;;6.38;2.97;;;;;;;22.13;28.67;100342.63;4230210;28;20109;-66
2023/11/29 03:54:28;;;;;;;6.35;3.05;;;;;;;22.15;28.44;100339.78;4242854;27;20118;-69
2023/11/29 03:56:29;;;;;;;5.45;3.13;;;;;;;22.19;28.47;100343.91;4230434;28;20089;-67
2023/11/29 03:58:31;;;;;;;5.18;3.03;;;;;;;22.19;28.59;100338.56;4228530;28;20069;-67
2023/11/29 04:00:33;;;;;;;6.35;3.35;;;;;;;22.24;28.48;100340.81;4230122;28;20078;-67
2023/11/29 04:02:34;;;;;;;5.97;3.30;;;;;;;22.22;28.50;100340.09;4230092;28;20136;-66
2023/11/29 04:04:38;;;;;;;6.32;3.25;;;;;;;22.18;28.53;100337.69;4230384;28;20046;-69
2023/11/29 04:06:40;;;;;;;5.47;3.30;;;;;;;22.19;28.34;100343.91;4230320;28;20417;-66
2023/11/29 04:08:42;;;;;;;5.53;3.00;;;;;;;22.18;28.80;100339.53;4230252;28;20577;-67
2023/11/29 04:10:43;;;;;;;7.03;3.58;;;;;;;22.17;28.86;100337.84;4229908;28;20055;-67
2023/11/29 04:12:45;;;;;;;7.43;3.47;;;;;;;22.17;28.58;100330.63;4230062;28;20118;-67
2023/11/29 04:14:46;;;;;;;6.90;3.35;;;;;;;22.16;28.51;100320.94;4229827;28;20044;-67
2023/11/29 04:16:49;;;;;;;5.63;3.30;;;;;;;22.06;28.48;100304.00;4229719;28;20058;-66
2023/11/29 04:18:52;;;;;;;5.70;3.00;;;;;;;22.23;28.47;100315.00;4229873;28;20127;-67
2023/11/29 04:20:57;;;;;;;6.20;3.65;;;;;;;22.26;28.59;100318.25;4230107;28;20082;-66
2023/11/29 04:22:58;;;;;;;6.10;3.20;;;;;;;22.25;28.57;100313.00;4229967;28;20057;-67
2023/11/29 04:25:00;;;;;;;6.18;3.47;;;;;;;22.25;28.41;100321.06;4229879;28;20420;-66
2023/11/29 04:27:02;;;;;;;5.40;3.28;;;;;;;22.19;28.51;100309.09;4228754;28;20048;-68
2023/11/29 04:29:09;;;;;;;5.68;3.00;;;;;;;22.17;28.41;100309.19;4229601;28;20051;-66
2023/11/29 04:31:13;;;;;;;6.63;3.25;;;;;;;22.16;28.85;100306.69;4249304;27;20110;-67
2023/11/29 04:33:15;;;;;;;6.80;3.65;;;;;;;22.16;28.63;100315.56;4263662;27;20043;-69
2023/11/29 04:35:17;;;;;;;6.40;3.53;;;;;;;22.17;28.73;100313.72;4264028;27;20046;-66
2023/11/29 04:37:19;;;;;;;5.70;3.28;;;;;;;22.20;28.19;100315.28;4247085;27;20462;-66
2023/11/29 04:39:20;;;;;;;5.63;3.65;;;;;;;22.22;28.83;100318.66;4267228;27;20038;-68
2023/11/29 04:41:22;;;;;;;7.20;3.55;;;;;;;22.22;28.79;100316.00;4267238;27;20137;-68
2023/11/29 04:43:24;;;;;;;5.43;3.13;;;;;;;22.25;28.78;100315.69;4256978;27;20150;-66
2023/11/29 04:45:26;;;;;;;5.10;2.63;;;;;;;22.25;28.50;100318.38;4233006;28;20423;-66
2023/11/29 04:47:28;;;;;;;5.40;3.20;;;;;;;22.23;28.58;100321.19;4232739;28;20210;-67
2023/11/29 04:49:29;;;;;;;6.15;3.28;;;;;;;22.22;28.65;100310.63;4233340;28;20175;-67
2023/11/29 04:51:31;;;;;;;6.60;3.38;;;;;;;22.16;28.50;100310.22;4232800;28;20044;-67
2023/11/29 04:53:33;;;;;;;;;;;;;;;22.17;28.96;100311.06;4240258;27;20039;-67
2023/11/29 04:55:34;;;;;;;5.07;2.85;;;;;;;22.07;28.81;100289.63;4238783;27;19923;-67
2023/11/29 04:57:36;;;;;;;;;;;;;;;22.17;28.75;100303.00;4233176;28;20086;-67
2023/11/29 04:59:40;;;;;;;5.55;2.80;;;;;;;22.18;28.85;100292.16;4232899;28;20018;-67
2023/11/29 05:01:42;;;;;;;5.18;2.80;;;;;;;22.25;28.57;100295.13;4232843;28;20459;-67
2023/11/29 05:03:44;;;;;;;5.60;2.95;;;;;;;22.26;28.59;100288.78;4232779;28;20044;-66
2023/11/29 05:05:46;;;;;;;;;;;;;;;22.24;28.80;100290.75;4233413;28;20052;-66
2023/11/29 05:07:48;;;;;;;4.80;2.55;;;;;;;22.19;28.54;100287.66;4232635;28;19920;-67
2023/11/29 05:09:49;;;;;;;;;;;;;;;22.18;28.63;100294.84;4233197;28;20043;-67
2023/11/29 05:11:51;;;;;;;5.32;2.80;;;;;;;22.13;29.01;100278.34;4232475;28;20399;-67
2023/11/29 05:13:53;;;;;;;4.53;2.50;;;;;;;22.16;28.78;100277.22;4232672;28;20130;-67
2023/11/29 05:15:55;;;;;;;5.38;2.85;;;;;;;22.17;28.58;100276.22;4232623;28;20048;-67
2023/11/29 05:17:56;;;;;;;5.07;2.63;;;;;;;22.18;28.83;100276.06;4232215;28;20127;-67
2023/11/29 05:19:58;;;;;;;;;;;;;;;22.20;28.73;100273.28;4232950;28;20059;-66
2023/11/29 05:22:00;;;;;;;4.95;2.70;;;;;;;22.22;28.77;100273.13;4232428;28;19926;-67
2023/11/29 05:24:03;;;;;;;4.85;2.35;;;;;;;22.24;28.74;100271.16;4231265;28;20505;-66
2023/11/29 05:26:04;;;;;;;5.63;2.78;;;;;;;22.23;28.88;100266.78;4232044;28;20044;-66
2023/11/29 05:28:08;;;;;;;3.88;2.25;;;;;;;22.23;28.84;100264.13;4232265;28;20148;-66
2023/11/29 05:30:10;;;;;;;5.82;2.78;;;;;;;22.24;29.02;100263.13;4234594;27;20462;-67
2023/11/29 05:32:12;;;;;;;;;;;;;;;22.20;28.85;100273.28;4266937;27;20050;-67
2023/11/29 05:34:14;;;;;;;5.85;2.60;;;;;;;22.15;28.95;100276.38;4266550;27;19919;-67
2023/11/29 05:36:18;;;;;;;4.22;2.13;;;;;;;22.17;28.55;100274.38;4248118;27;20059;-67
2023/11/29 05:38:19;;;;;;;5.30;2.55;;;;;;;22.19;28.91;100266.22;4266565;27;20078;-67
2023/11/29 05:40:21;;;;;;;4.53;2.10;;;;;;;22.20;28.75;100267.06;4265974;27;20042;-67
2023/11/29 05:42:23;;;;;;;3.95;1.92;;;;;;;22.24;28.78;100271.16;4266337;27;20047;-67
2023/11/29 05:44:24;;;;;;;4.45;2.08;;;;;;;22.28;28.46;100275.25;4238917;27;20111;-67
2023/11/29 05:46:28;;;;;;;;;;;;;;;22.26;28.66;100270.03;4232375;27;20048;-67
2023/11/29 05:48:30;;;;;;;3.83;1.88;;;;;;;22.24;28.63;100272.00;4231084;28;19926;-67
2023/11/29 05:50:32;;;;;;;4.75;2.10;;;;;;;22.25;28.82;100272.84;4232073;28;20131;-67
2023/11/29 05:52:33;;;;;;;4.10;1.80;;;;;;;22.18;28.71;100268.03;4232011;28;20044;-67
2023/11/29 05:54:35;;;;;;;3.80;1.80;;;;;;;22.21;28.81;100276.78;4244326;27;20044;-68
2023/11/29 05:56:37;;;;;;;4.18;1.90;;;;;;;22.18;28.84;100270.72;4237345;27;20051;-66
2023/11/29 05:58:39;;;;;;;4.15;2.05;;;;;;;22.20;29.03;100273.28;4248920;27;20531;-69
2023/11/29 06:00:41;;;;;;;4.93;2.00;;;;;;;22.18;28.93;100276.06;4248644;27;20142;-69
2023/11/29 06:02:43;;;;;;;3.38;1.63;;;;;;;22.23;28.98;100281.03;4248795;27;20054;-68
2023/11/29 06:04:44;;;;;;;3.58;1.80;;;;;;;22.28;28.64;100278.75;4248856;27;20070;-68
2023/11/29 06:06:46;;;;;;;4.03;1.73;;;;;;;22.29;28.89;100277.78;4248430;27;20047;-68
2023/11/29 06:08:48;;;;;;;3.58;1.70;;;;;;;22.29;28.76;100279.63;4248779;27;20569;-68
2023/11/29 06:10:49;;;;;;;;;;;;;;;22.28;28.87;100272.56;4249049;27;20054;-68
2023/11/29 06:12:51;;;;;;;4.28;1.92;;;;;;;22.24;28.71;100281.88;4248791;27;20018;-67
2023/11/29 06:14:53;;;;;;;;;;;;;;;22.22;28.76;100275.81;4249065;27;20076;-68
2023/11/29 06:16:55;;;;;;;3.92;1.80;;;;;;;22.15;28.93;100270.16;4248873;27;19923;-68
2023/11/29 06:18:57;;;;;;;4.13;1.80;;;;;;;22.21;29.02;100277.63;4248688;27;20047;-68
2023/11/29 06:20:59;;;;;;;3.65;1.85;;;;;;;22.20;28.67;100275.97;4248783;27;20055;-68
2023/11/29 06:23:01;;;;;;;3.88;1.70;;;;;;;22.22;28.78;100273.13;4248594;27;20039;-68
2023/11/29 06:25:04;;;;;;;;;;;;;;;22.28;28.93;100284.13;4248675;27;20082;-68
2023/11/29 06:27:06;;;;;;;4.40;1.65;;;;;;;22.25;28.96;100275.50;4248311;27;19919;-69
2023/11/29 06:29:11;;;;;;;4.35;1.98;;;;;;;22.28;28.83;100281.44;4248556;27;20071;-68
2023/11/29 06:31:13;;;;;;;3.90;1.55;;;;;;;22.27;28.76;100273.53;4258340;27;20133;-68
2023/11/29 06:33:14;;;;;;;4.28;1.90;;;;;;;22.28;28.78;100278.75;4265628;27;20042;-67
2023/11/29 06:35:16;;;;;;;;;;;;;;;22.26;28.88;100274.53;4265906;27;20418;-66
2023/11/29 06:37:18;;;;;;;3.38;1.60;;;;;;;22.23;28.64;100277.50;4265528;27;19925;-69
2023/11/29 06:39:21;;;;;;;;;;;;;;;22.23;28.79;100269.47;4265898;27;20503;-67
2023/11/29 06:41:22;;;;;;;5.10;2.00;;;;;;;22.16;28.96;100262.00;4265381;27;19919;-67
2023/11/29 06:43:24;;;;;;;4.57;2.05;;;;;;;22.25;28.70;100268.34;4255142;27;20114;-67
2023/11/29 06:45:26;;;;;;;3.78;1.40;;;;;;;22.29;28.68;100269.72;4231061;28;20044;-67
2023/11/29 06:47:28;;;;;;;3.80;1.58;;;;;;;22.31;28.91;100267.78;4230836;28;20055;-67
2023/11/29 06:49:29;;;;;;;3.90;1.70;;;;;;;22.32;29.10;100265.94;4229803;28;20075;-68
2023/11/29 06:51:31;;;;;;;2.85;1.33;;;;;;;22.31;28.99;100261.56;4231033;27;20050;-68
2023/11/29 06:53:33;;;;;;;3.30;1.38;;;;;;;22.30;29.09;100259.88;4237434;27;20046;-68
2023/11/29 06:55:35;;;;;;;3.60;1.50;;;;;;;22.28;28.76;100264.53;4238591;27;20096;-68
2023/11/29 06:57:38;;;;;;;3.45;1.40;;;;;;;22.28;28.76;100269.88;4248109;27;20043;-68
2023/11/29 06:59:39;;;;;;;4.00;1.60;;;;;;;22.27;29.08;100261.03;4247653;27;20522;-67
2023/11/29 07:01:41;;;;;;;4.82;1.30;;;;;;;22.22;28.88;100252.53;4247673;27;20050;-67
2023/11/29 07:03:43;;;;;;;3.00;1.38;;;;;;;22.23;28.83;100248.03;4247744;27;20094;-67
2023/11/29 07:05:45;;;;;;;4.05;1.75;;;;;;;22.29;29.00;100259.03;4247519;27;20043;-67
2023/11/29 07:07:48;;;;;;;4.60;1.50;;;;;;;22.33;28.86;100264.94;4247498;27;20044;-69
2023/11/29 07:09:52;;;;;;;4.65;1.60;;;;;;;22.36;28.86;100256.63;4247577;27;20047;-67
2023/11/29 07:11:55;;;;;;;3.78;1.50;;;;;;;22.33;28.86;100239.00;4247811;27;20047;-69
2023/11/29 07:13:57;;;;;;;3.17;1.30;;;;;;;22.33;28.94;100238.16;4247321;27;20403;-66
2023/11/29 07:15:59;;;;;;;4.13;1.40;;;;;;;22.30;28.58;100244.63;4247386;27;20126;-66
2023/11/29 07:18:01;;;;;;;3.50;1.40;;;;;;;22.30;28.99;100250.00;4247437;27;20043;-68
2023/11/29 07:20:06;;;;;;;4.55;1.50;;;;;;;22.29;28.96;100250.16;4247617;27;20047;-69
2023/11/29 07:22:08;;;;;;;3.72;1.30;;;;;;;22.27;29.12;100247.63;4247195;27;20043;-66
2023/11/29 07:24:10;;;;;;;;;;;;;;;22.29;28.90;100244.78;4247868;27;20117;-66
2023/11/29 07:26:12;;;;;;;3.38;1.60;;;;;;;22.30;28.80;100243.81;4247393;27;19923;-67
2023/11/29 07:28:14;;;;;;;4.05;1.50;;;;;;;22.34;29.01;100234.50;4247447;27;20047;-68
2023/11/29 07:30:16;;;;;;;;;;;;;;;22.36;28.68;100247.72;4249661;27;20501;-68
2023/11/29 07:32:22;;;;;;;5.18;1.90;;;;;;;22.36;28.73;100253.09;4264543;27;19941;-68
2023/11/29 07:34:24;;;;;;;3.58;1.48;;;;;;;22.34;28.89;100251.41;4246432;27;20043;-69
2023/11/29 07:36:26;;;;;;;;;;;;;;;22.34;29.01;100247.88;4264526;27;20095;-67
2023/11/29 07:38:29;;;;;;;3.05;1.40;;;;;;;22.29;28.66;100253.66;4264595;27;19930;-68
2023/11/29 07:40:31;;;;;;;3.35;1.50;;;;;;;22.27;28.71;100244.09;4264343;27;20533;-68
2023/11/29 07:42:32;;;;;;;;;;;;;;;22.29;28.95;100250.97;4265036;27;20610;-66
2023/11/29 07:44:34;;;;;;;3.22;1.27;;;;;;;22.28;28.86;100254.66;4241903;27;20002;-68
2023/11/29 07:46:36;;;;;;;4.15;1.40;;;;;;;22.31;28.96;100256.22;4247168;27;20502;-68
2023/11/29 07:48:38;;;;;;;4.32;1.50;;;;;;;22.33;28.86;100254.22;4247125;27;20511;-69
2023/11/29 07:50:39;;;;;;;;;;;;;;;22.39;29.03;100255.53;4247250;27;20413;-68
2023/11/29 07:52:41;;;;;;;5.28;1.63;;;;;;;22.37;28.99;100262.81;4247267;27;19920;-68
2023/11/29 07:54:43;;;;;;;4.63;1.40;;;;;;;22.38;28.86;100256.47;4240040;27;20070;-68
2023/11/29 07:56:44;;;;;;;3.85;1.50;;;;;;;22.39;28.58;100261.72;4230101;28;20504;-68
2023/11/29 07:58:46;;;;;;;4.13;1.50;;;;;;;22.31;28.92;100253.53;4230147;28;20051;-68
2023/11/29 08:00:48;;;;;;;3.78;1.77;;;;;;;22.36;28.88;100274.53;4230194;28;20132;-68
2023/11/29 08:02:50;;;;;;;4.07;1.50;;;;;;;22.34;29.01;100272.81;4229741;28;20044;-68
2023/11/29 08:04:51;;;;;;;3.53;1.27;;;;;;;22.34;28.69;100269.31;4229607;28;20044;-69
2023/11/29 08:06:53;;;;;;;4.30;1.27;;;;;;;22.34;28.91;100266.63;4229915;28;20069;-68
2023/11/29 08:08:55;;;;;;;2.92;1.40;;;;;;;22.34;29.05;100254.06;4229856;28;20063;-68
2023/11/29 08:10:57;;;;;;;4.88;1.50;;;;;;;22.37;28.78;100244.94;4229868;28;20096;-67
2023/11/29 08:12:58;;;;;;;4.43;1.60;;;;;;;22.44;28.76;100269.34;4229390;28;20050;-68
2023/11/29 08:15:00;;;;;;;4.28;1.52;;;;;;;22.39;29.10;100247.50;4229873;28;20059;-69
2023/11/29 08:17:02;;;;;;;;;;;;;;;22.41;28.80;100254.41;4230059;28;20048;-68
2023/11/29 08:19:04;;;;;;;4.00;1.40;;;;;;;22.33;28.89;100254.22;4229638;28;20006;-67
2023/11/29 08:21:05;;;;;;;3.70;1.42;;;;;;;22.34;28.93;100255.91;4229711;28;20081;-68
2023/11/29 08:23:07;;;;;;;4.47;1.50;;;;;;;22.32;28.87;100252.53;4229711;28;20103;-68
2023/11/29 08:25:09;;;;;;;3.38;1.45;;;;;;;22.33;29.05;100260.44;4229822;28;20040;-68
2023/11/29 08:27:11;;;;;;;4.22;1.58;;;;;;;22.33;28.89;100259.59;4229715;28;20050;-68
2023/11/29 08:29:13;;;;;;;2.70;1.25;;;;;;;22.34;29.00;100254.06;4227900;28;20051;-68
2023/11/29 08:31:16;;;;;;;3.55;1.40;;;;;;;22.36;29.09;100256.63;4256911;27;20047;-68
2023/11/29 08:33:18;;;;;;;3.08;1.25;;;;;;;22.41;28.83;100250.88;4264075;27;20415;-67
2023/11/29 08:35:19;;;;;;;;;;;;;;;22.42;29.03;100248.06;4263929;27;20042;-69
2023/11/29 08:37:21;;;;;;;3.15;1.35;;;;;;;22.41;28.67;100253.56;4263884;27;19997;-68
2023/11/29 08:39:23;;;;;;;2.92;1.38;;;;;;;22.31;28.65;100240.97;4263908;27;20047;-69
2023/11/29 08:41:24;;;;;;;3.65;1.63;;;;;;;22.43;28.80;100251.56;4245654;28;20049;-68
2023/11/29 08:43:26;;;;;;;2.83;1.30;;;;;;;22.40;28.73;100249.19;4234955;28;20040;-68
2023/11/29 08:45:28;;;;;;;4.85;1.50;;;;;;;22.37;28.90;100250.28;4229559;28;20520;-68
2023/11/29 08:47:29;;;;;;;4.43;1.48;;;;;;;22.35;28.85;100249.56;4235119;28;20047;-76
2023/11/29 08:49:31;;;;;;;3.25;1.48;;;;;;;22.33;28.75;100238.16;4246339;28;20100;-79
2023/11/29 08:51:33;;;;;;;3.97;1.30;;;;;;;22.40;29.19;100241.97;4246601;28;20121;-66
2023/11/29 08:53:35;;;;;;;4.55;1.50;;;;;;;22.40;28.80;100236.63;4246685;28;20043;-67
2023/11/29 08:55:44;;;;;;;4.82;1.73;;;;;;;22.44;28.33;100234.50;4230913;28;20130;-67
2023/11/29 08:57:46;;;;;;;3.65;1.50;;;;;;;22.46;28.83;100240.56;4229461;28;20055;-66
2023/11/29 08:59:47;;;;;;;5.32;1.88;;;;;;;22.42;28.83;100229.28;4233851;28;20160;-67
2023/11/29 09:01:49;;;;;;;5.55;1.88;;;;;;;22.44;28.88;100243.41;4245673;28;20510;-66
2023/11/29 09:03:51;;;;;;;4.68;1.80;;;;;;;22.35;28.90;100236.19;4244974;28;20047;-74
2023/11/29 09:05:52;;;;;;;4.30;1.85;;;;;;;22.38;28.60;100235.03;4243870;28;20039;-60
2023/11/29 09:07:55;;;;;;;6.25;1.83;;;;;;;22.49;29.62;100240.28;4229310;27;20095;-70
2023/11/29 09:09:58;;;;;;;4.80;1.77;;;;;;;22.46;29.28;100237.91;4233684;27;20443;-64
2023/11/29 09:12:00;;;;;;;7.50;2.00;;;;;;;22.54;30.20;100235.34;4239843;27;20069;-66
2023/11/29 09:14:03;;;;;;;7.45;1.90;;;;;;;22.69;30.22;100235.72;4242328;28;20035;-68
2023/11/29 09:16:05;;;;;;;8.85;2.10;;;;;;;22.81;30.26;100239.06;4240966;27;20070;-72
2023/11/29 09:18:08;;;;;;;12.73;2.63;;;;;;;22.79;30.33;100241.88;4242341;28;20297;-70
2023/11/29 09:20:10;;;;;;;;;;;;;;;22.85;30.40;100240.47;4242009;28;20165;-71
2023/11/29 09:22:12;;;;;;;18.83;2.72;;;;;;;22.85;30.37;100240.47;4233836;28;19976;-62
2023/11/29 09:24:14;;;;;;;19.58;3.10;;;;;;;22.88;29.16;100236.63;4245308;27;20054;-73
2023/11/29 09:26:16;;;;;;;14.55;2.72;;;;;;;22.93;29.63;100232.53;4245287;27;20077;-67
2023/11/29 09:28:18;;;;;;;18.20;3.65;;;;;;;22.95;29.16;100230.56;4249219;27;20130;-67
2023/11/29 09:30:21;;;;;;;15.02;2.65;;;;;;;22.87;28.64;100240.31;4248000;27;20071;-60
2023/11/29 09:32:22;;;;;;;14.07;2.92;;;;;;;22.74;28.93;100224.56;4246977;27;20043;-72